sensor_id;sensor_type;location;lat;lon;timestamp;P1;durP1;ratioP1;P2;durP2;ratioP2
15297;SDS011;7750;48.796;9.026;2022-10-13T00:02:13;23.00;;;13.60;;
15297;SDS011;7750;48.796;9.026;2022-10-13T00:07:14;25.30;;;14.27;;
15297;SDS011;7750;48.796;9.026;2022-10-13T00:12:15;23.97;;;14.80;;
15297;SDS011;7750;48.796;9.026;2022-10-13T00:17:15;23.10;;;14.40;;
15297;SDS011;7750;48.796;9.026;2022-10-13T00:22:16;28.60;;;14.17;;
15297;SDS011;7750;48.796;9.026;2022-10-13T00:27:17;24.40;;;14.80;;
15297;SDS011;7750;48.796;9.026;2022-10-13T00:32:18;18.33;;;12.97;;
15297;SDS011;7750;48.796;9.026;2022-10-13T00:37:19;23.03;;;14.40;;
15297;SDS011;7750;48.796;9.026;2022-10-13T00:42:19;18.60;;;12.57;;
15297;SDS011;7750;48.796;9.026;2022-10-13T00:47:22;21.30;;;13.50;;
15297;SDS011;7750;48.796;9.026;2022-10-13T00:52:25;21.87;;;13.40;;
15297;SDS011;7750;48.796;9.026;2022-10-13T00:57:27;24.10;;;12.53;;
15297;SDS011;7750;48.796;9.026;2022-10-13T01:02:28;18.27;;;13.27;;
15297;SDS011;7750;48.796;9.026;2022-10-13T01:07:32;20.27;;;11.50;;
15297;SDS011;7750;48.796;9.026;2022-10-13T01:23:36;21.70;;;12.50;;
15297;SDS011;7750;48.796;9.026;2022-10-13T01:29:19;17.37;;;11.97;;
15297;SDS011;7750;48.796;9.026;2022-10-13T01:34:44;17.23;;;11.23;;
15297;SDS011;7750;48.796;9.026;2022-10-13T01:44:57;21.00;;;11.70;;
15297;SDS011;7750;48.796;9.026;2022-10-13T01:50:13;20.90;;;13.17;;
15297;SDS011;7750;48.796;9.026;2022-10-13T01:55:31;26.00;;;13.97;;
15297;SDS011;7750;48.796;9.026;2022-10-13T02:00:32;28.27;;;15.17;;
15297;SDS011;7750;48.796;9.026;2022-10-13T02:11:02;22.80;;;13.80;;
15297;SDS011;7750;48.796;9.026;2022-10-13T02:16:06;20.10;;;13.30;;
15297;SDS011;7750;48.796;9.026;2022-10-13T02:21:07;22.67;;;13.37;;
15297;SDS011;7750;48.796;9.026;2022-10-13T02:26:11;22.37;;;13.77;;
15297;SDS011;7750;48.796;9.026;2022-10-13T02:31:13;22.07;;;13.83;;
15297;SDS011;7750;48.796;9.026;2022-10-13T02:36:13;20.87;;;13.10;;
15297;SDS011;7750;48.796;9.026;2022-10-13T02:41:14;21.67;;;13.67;;
15297;SDS011;7750;48.796;9.026;2022-10-13T02:46:15;23.07;;;14.60;;
15297;SDS011;7750;48.796;9.026;2022-10-13T02:51:15;20.90;;;14.80;;
15297;SDS011;7750;48.796;9.026;2022-10-13T02:56:16;24.73;;;14.73;;
15297;SDS011;7750;48.796;9.026;2022-10-13T03:01:18;26.93;;;16.83;;
15297;SDS011;7750;48.796;9.026;2022-10-13T03:06:21;24.30;;;15.70;;
15297;SDS011;7750;48.796;9.026;2022-10-13T03:11:22;20.60;;;13.23;;
15297;SDS011;7750;48.796;9.026;2022-10-13T03:16:28;27.10;;;14.27;;
15297;SDS011;7750;48.796;9.026;2022-10-13T03:21:31;19.50;;;12.83;;
15297;SDS011;7750;48.796;9.026;2022-10-13T03:26:32;22.47;;;13.87;;
15297;SDS011;7750;48.796;9.026;2022-10-13T03:31:33;17.20;;;12.10;;
15297;SDS011;7750;48.796;9.026;2022-10-13T03:36:34;25.93;;;13.10;;
15297;SDS011;7750;48.796;9.026;2022-10-13T03:41:35;22.13;;;12.70;;
15297;SDS011;7750;48.796;9.026;2022-10-13T03:46:35;18.17;;;12.33;;
15297;SDS011;7750;48.796;9.026;2022-10-13T03:51:36;20.33;;;14.40;;
15297;SDS011;7750;48.796;9.026;2022-10-13T03:56:37;18.20;;;11.00;;
15297;SDS011;7750;48.796;9.026;2022-10-13T04:01:39;20.83;;;12.83;;
15297;SDS011;7750;48.796;9.026;2022-10-13T04:06:39;21.63;;;11.97;;
15297;SDS011;7750;48.796;9.026;2022-10-13T04:11:40;28.50;;;15.00;;
15297;SDS011;7750;48.796;9.026;2022-10-13T04:16:47;23.27;;;14.93;;
15297;SDS011;7750;48.796;9.026;2022-10-13T04:22:06;24.40;;;14.50;;
15297;SDS011;7750;48.796;9.026;2022-10-13T04:27:09;27.13;;;13.27;;
15297;SDS011;7750;48.796;9.026;2022-10-13T04:32:24;22.27;;;13.07;;
15297;SDS011;7750;48.796;9.026;2022-10-13T04:37:24;19.27;;;12.90;;
15297;SDS011;7750;48.796;9.026;2022-10-13T04:42:25;19.10;;;13.10;;
15297;SDS011;7750;48.796;9.026;2022-10-13T04:47:28;23.70;;;12.73;;
15297;SDS011;7750;48.796;9.026;2022-10-13T04:52:41;21.47;;;12.17;;
15297;SDS011;7750;48.796;9.026;2022-10-13T04:57:42;20.10;;;13.10;;
15297;SDS011;7750;48.796;9.026;2022-10-13T05:02:42;17.50;;;11.20;;
15297;SDS011;7750;48.796;9.026;2022-10-13T05:07:43;22.90;;;13.50;;
15297;SDS011;7750;48.796;9.026;2022-10-13T05:12:44;25.73;;;14.90;;
15297;SDS011;7750;48.796;9.026;2022-10-13T05:17:45;22.40;;;14.80;;
15297;SDS011;7750;48.796;9.026;2022-10-13T05:22:59;22.23;;;14.80;;
15297;SDS011;7750;48.796;9.026;2022-10-13T05:28:00;26.23;;;15.57;;
15297;SDS011;7750;48.796;9.026;2022-10-13T05:33:19;25.73;;;14.73;;
15297;SDS011;7750;48.796;9.026;2022-10-13T05:38:35;20.97;;;14.90;;
15297;SDS011;7750;48.796;9.026;2022-10-13T05:43:39;21.97;;;13.60;;
15297;SDS011;7750;48.796;9.026;2022-10-13T05:48:43;28.10;;;16.50;;
15297;SDS011;7750;48.796;9.026;2022-10-13T05:53:49;23.07;;;14.40;;
15297;SDS011;7750;48.796;9.026;2022-10-13T05:58:54;26.23;;;14.60;;
15297;SDS011;7750;48.796;9.026;2022-10-13T06:04:00;26.80;;;13.60;;
15297;SDS011;7750;48.796;9.026;2022-10-13T06:09:10;16.70;;;12.83;;
15297;SDS011;7750;48.796;9.026;2022-10-13T06:14:23;20.97;;;14.00;;
15297;SDS011;7750;48.796;9.026;2022-10-13T06:19:51;32.43;;;14.50;;
15297;SDS011;7750;48.796;9.026;2022-10-13T06:24:52;26.60;;;16.07;;
15297;SDS011;7750;48.796;9.026;2022-10-13T06:29:53;21.27;;;14.00;;
15297;SDS011;7750;48.796;9.026;2022-10-13T06:35:17;24.17;;;14.37;;
15297;SDS011;7750;48.796;9.026;2022-10-13T06:46:07;22.20;;;14.53;;
15297;SDS011;7750;48.796;9.026;2022-10-13T06:51:11;30.80;;;15.70;;
15297;SDS011;7750;48.796;9.026;2022-10-13T06:56:11;25.17;;;16.77;;
15297;SDS011;7750;48.796;9.026;2022-10-13T07:01:18;31.00;;;15.60;;
15297;SDS011;7750;48.796;9.026;2022-10-13T07:06:18;21.97;;;15.03;;
15297;SDS011;7750;48.796;9.026;2022-10-13T07:11:19;22.10;;;15.60;;
15297;SDS011;7750;48.796;9.026;2022-10-13T07:16:20;22.47;;;14.70;;
15297;SDS011;7750;48.796;9.026;2022-10-13T07:21:21;22.23;;;14.50;;
15297;SDS011;7750;48.796;9.026;2022-10-13T07:26:21;22.47;;;15.80;;
15297;SDS011;7750;48.796;9.026;2022-10-13T07:31:24;22.17;;;14.23;;
15297;SDS011;7750;48.796;9.026;2022-10-13T07:36:31;30.40;;;18.60;;
15297;SDS011;7750;48.796;9.026;2022-10-13T07:41:32;26.03;;;16.93;;
15297;SDS011;7750;48.796;9.026;2022-10-13T07:46:33;26.53;;;16.77;;
15297;SDS011;7750;48.796;9.026;2022-10-13T07:51:34;25.80;;;16.37;;
15297;SDS011;7750;48.796;9.026;2022-10-13T07:56:35;22.07;;;15.93;;
15297;SDS011;7750;48.796;9.026;2022-10-13T08:01:35;22.47;;;15.03;;
15297;SDS011;7750;48.796;9.026;2022-10-13T08:06:36;23.30;;;13.80;;
15297;SDS011;7750;48.796;9.026;2022-10-13T08:11:37;23.47;;;13.77;;
15297;SDS011;7750;48.796;9.026;2022-10-13T08:16:38;21.63;;;13.70;;
15297;SDS011;7750;48.796;9.026;2022-10-13T08:21:40;20.97;;;13.10;;
15297;SDS011;7750;48.796;9.026;2022-10-13T08:26:45;36.33;;;12.73;;
15297;SDS011;7750;48.796;9.026;2022-10-13T08:31:50;22.73;;;13.20;;
15297;SDS011;7750;48.796;9.026;2022-10-13T08:36:51;21.50;;;12.17;;
15297;SDS011;7750;48.796;9.026;2022-10-13T08:41:55;26.90;;;13.37;;
15297;SDS011;7750;48.796;9.026;2022-10-13T08:46:58;19.63;;;11.07;;
15297;SDS011;7750;48.796;9.026;2022-10-13T08:52:03;18.10;;;10.10;;
15297;SDS011;7750;48.796;9.026;2022-10-13T08:57:04;18.30;;;10.40;;
15297;SDS011;7750;48.796;9.026;2022-10-13T09:02:12;19.43;;;8.80;;
15297;SDS011;7750;48.796;9.026;2022-10-13T09:07:22;16.40;;;9.73;;
15297;SDS011;7750;48.796;9.026;2022-10-13T09:12:26;20.50;;;11.80;;
15297;SDS011;7750;48.796;9.026;2022-10-13T09:17:27;17.50;;;9.87;;
15297;SDS011;7750;48.796;9.026;2022-10-13T09:22:35;20.17;;;11.20;;
15297;SDS011;7750;48.796;9.026;2022-10-13T09:27:54;18.20;;;9.83;;
15297;SDS011;7750;48.796;9.026;2022-10-13T09:38:19;16.33;;;11.20;;
15297;SDS011;7750;48.796;9.026;2022-10-13T09:48:32;20.07;;;10.53;;
15297;SDS011;7750;48.796;9.026;2022-10-13T09:53:39;15.73;;;9.97;;
15297;SDS011;7750;48.796;9.026;2022-10-13T09:58:44;16.10;;;9.50;;
15297;SDS011;7750;48.796;9.026;2022-10-13T10:03:52;15.43;;;9.33;;
15297;SDS011;7750;48.796;9.026;2022-10-13T10:09:02;15.93;;;8.23;;
15297;SDS011;7750;48.796;9.026;2022-10-13T10:19:28;20.80;;;9.40;;
15297;SDS011;7750;48.796;9.026;2022-10-13T10:24:52;13.40;;;7.67;;
15297;SDS011;7750;48.796;9.026;2022-10-13T10:30:07;15.03;;;7.20;;
15297;SDS011;7750;48.796;9.026;2022-10-13T10:35:15;14.30;;;8.63;;
15297;SDS011;7750;48.796;9.026;2022-10-13T10:45:51;11.30;;;7.30;;
15297;SDS011;7750;48.796;9.026;2022-10-13T10:50:56;9.73;;;6.37;;
15297;SDS011;7750;48.796;9.026;2022-10-13T11:06:36;15.40;;;6.90;;
15297;SDS011;7750;48.796;9.026;2022-10-13T11:11:37;10.87;;;7.57;;
15297;SDS011;7750;48.796;9.026;2022-10-13T11:17:26;10.90;;;7.10;;
15297;SDS011;7750;48.796;9.026;2022-10-13T11:37:47;12.00;;;7.17;;
15297;SDS011;7750;48.796;9.026;2022-10-13T11:43:10;11.43;;;7.93;;
15297;SDS011;7750;48.796;9.026;2022-10-13T11:53:52;13.17;;;8.30;;
15297;SDS011;7750;48.796;9.026;2022-10-13T11:58:57;9.40;;;6.90;;
15297;SDS011;7750;48.796;9.026;2022-10-13T12:03:58;8.40;;;6.43;;
15297;SDS011;7750;48.796;9.026;2022-10-13T12:09:15;11.50;;;7.20;;
15297;SDS011;7750;48.796;9.026;2022-10-13T12:14:23;9.00;;;6.43;;
15297;SDS011;7750;48.796;9.026;2022-10-13T12:19:34;10.90;;;6.93;;
15297;SDS011;7750;48.796;9.026;2022-10-13T12:24:39;9.07;;;5.87;;
15297;SDS011;7750;48.796;9.026;2022-10-13T12:29:40;11.77;;;7.20;;
15297;SDS011;7750;48.796;9.026;2022-10-13T12:34:40;8.20;;;6.20;;
15297;SDS011;7750;48.796;9.026;2022-10-13T12:39:41;14.13;;;6.97;;
15297;SDS011;7750;48.796;9.026;2022-10-13T12:44:43;8.43;;;6.27;;
15297;SDS011;7750;48.796;9.026;2022-10-13T12:49:44;11.40;;;6.50;;
15297;SDS011;7750;48.796;9.026;2022-10-13T12:54:52;10.47;;;6.10;;
15297;SDS011;7750;48.796;9.026;2022-10-13T12:59:54;9.30;;;6.00;;
15297;SDS011;7750;48.796;9.026;2022-10-13T13:04:55;9.20;;;5.47;;
15297;SDS011;7750;48.796;9.026;2022-10-13T13:15:29;7.10;;;5.27;;
15297;SDS011;7750;48.796;9.026;2022-10-13T13:20:32;8.57;;;5.33;;
15297;SDS011;7750;48.796;9.026;2022-10-13T13:25:36;5.70;;;4.60;;
15297;SDS011;7750;48.796;9.026;2022-10-13T13:30:49;14.40;;;5.70;;
15297;SDS011;7750;48.796;9.026;2022-10-13T13:35:50;10.17;;;5.60;;
15297;SDS011;7750;48.796;9.026;2022-10-13T13:40:52;8.37;;;4.97;;
15297;SDS011;7750;48.796;9.026;2022-10-13T13:45:52;9.97;;;5.83;;
15297;SDS011;7750;48.796;9.026;2022-10-13T13:50:53;12.90;;;4.90;;
15297;SDS011;7750;48.796;9.026;2022-10-13T13:55:54;14.60;;;6.97;;
15297;SDS011;7750;48.796;9.026;2022-10-13T14:00:54;14.97;;;6.70;;
15297;SDS011;7750;48.796;9.026;2022-10-13T14:05:55;8.40;;;4.70;;
15297;SDS011;7750;48.796;9.026;2022-10-13T14:10:56;12.00;;;5.53;;
15297;SDS011;7750;48.796;9.026;2022-10-13T14:15:57;12.00;;;6.03;;
15297;SDS011;7750;48.796;9.026;2022-10-13T14:32:04;62.83;;;9.20;;
15297;SDS011;7750;48.796;9.026;2022-10-13T14:37:05;16.20;;;10.10;;
15297;SDS011;7750;48.796;9.026;2022-10-13T14:42:05;21.27;;;14.00;;
15297;SDS011;7750;48.796;9.026;2022-10-13T14:47:06;18.63;;;9.57;;
15297;SDS011;7750;48.796;9.026;2022-10-13T14:52:07;24.43;;;9.43;;
15297;SDS011;7750;48.796;9.026;2022-10-13T14:57:08;18.97;;;9.40;;
15297;SDS011;7750;48.796;9.026;2022-10-13T15:02:14;16.80;;;8.97;;
15297;SDS011;7750;48.796;9.026;2022-10-13T15:07:15;16.87;;;8.70;;
15297;SDS011;7750;48.796;9.026;2022-10-13T15:12:24;11.63;;;8.50;;
15297;SDS011;7750;48.796;9.026;2022-10-13T15:17:29;12.07;;;8.53;;
15297;SDS011;7750;48.796;9.026;2022-10-13T15:50:53;17.30;;;7.47;;
15297;SDS011;7750;48.796;9.026;2022-10-13T16:07:10;14.20;;;8.03;;
15297;SDS011;7750;48.796;9.026;2022-10-13T16:41:25;9.93;;;6.60;;
15297;SDS011;7750;48.796;9.026;2022-10-13T16:46:28;12.97;;;8.03;;
15297;SDS011;7750;48.796;9.026;2022-10-13T16:51:32;12.43;;;6.20;;
15297;SDS011;7750;48.796;9.026;2022-10-13T16:56:33;14.57;;;7.67;;
15297;SDS011;7750;48.796;9.026;2022-10-13T17:01:36;10.00;;;7.00;;
15297;SDS011;7750;48.796;9.026;2022-10-13T17:06:39;9.77;;;6.23;;
15297;SDS011;7750;48.796;9.026;2022-10-13T17:11:40;40.33;;;8.60;;
15297;SDS011;7750;48.796;9.026;2022-10-13T17:16:41;35.77;;;7.57;;
15297;SDS011;7750;48.796;9.026;2022-10-13T17:21:43;10.60;;;6.77;;
15297;SDS011;7750;48.796;9.026;2022-10-13T17:26:44;12.30;;;7.53;;
15297;SDS011;7750;48.796;9.026;2022-10-13T17:31:45;9.80;;;6.80;;
15297;SDS011;7750;48.796;9.026;2022-10-13T17:36:46;10.07;;;7.10;;
15297;SDS011;7750;48.796;9.026;2022-10-13T17:41:47;14.93;;;6.13;;
15297;SDS011;7750;48.796;9.026;2022-10-13T17:46:47;13.73;;;7.10;;
15297;SDS011;7750;48.796;9.026;2022-10-13T17:51:51;8.37;;;6.40;;
15297;SDS011;7750;48.796;9.026;2022-10-13T17:56:53;9.40;;;6.30;;
15297;SDS011;7750;48.796;9.026;2022-10-13T18:01:54;12.73;;;7.40;;
15297;SDS011;7750;48.796;9.026;2022-10-13T18:06:55;12.03;;;7.57;;
15297;SDS011;7750;48.796;9.026;2022-10-13T18:11:56;14.40;;;7.47;;
15297;SDS011;7750;48.796;9.026;2022-10-13T18:16:56;12.77;;;7.70;;
15297;SDS011;7750;48.796;9.026;2022-10-13T18:21:57;19.10;;;8.13;;
15297;SDS011;7750;48.796;9.026;2022-10-13T18:26:58;12.83;;;6.70;;
15297;SDS011;7750;48.796;9.026;2022-10-13T18:31:59;12.43;;;8.03;;
15297;SDS011;7750;48.796;9.026;2022-10-13T18:37:00;29.23;;;7.77;;
15297;SDS011;7750;48.796;9.026;2022-10-13T18:42:00;15.30;;;9.40;;
15297;SDS011;7750;48.796;9.026;2022-10-13T18:47:01;15.07;;;10.43;;
15297;SDS011;7750;48.796;9.026;2022-10-13T18:52:02;13.20;;;10.17;;
15297;SDS011;7750;48.796;9.026;2022-10-13T18:57:03;20.33;;;11.30;;
15297;SDS011;7750;48.796;9.026;2022-10-13T19:02:03;12.33;;;8.70;;
15297;SDS011;7750;48.796;9.026;2022-10-13T19:07:04;57.87;;;11.27;;
15297;SDS011;7750;48.796;9.026;2022-10-13T19:12:05;12.97;;;9.60;;
15297;SDS011;7750;48.796;9.026;2022-10-13T19:17:05;10.37;;;8.30;;
15297;SDS011;7750;48.796;9.026;2022-10-13T19:22:06;16.67;;;8.33;;
15297;SDS011;7750;48.796;9.026;2022-10-13T19:27:08;14.70;;;8.47;;
15297;SDS011;7750;48.796;9.026;2022-10-13T19:32:09;12.00;;;7.77;;
15297;SDS011;7750;48.796;9.026;2022-10-13T19:37:10;15.83;;;9.37;;
15297;SDS011;7750;48.796;9.026;2022-10-13T19:42:10;14.53;;;9.07;;
15297;SDS011;7750;48.796;9.026;2022-10-13T19:47:11;18.17;;;9.10;;
15297;SDS011;7750;48.796;9.026;2022-10-13T19:52:12;15.10;;;8.83;;
15297;SDS011;7750;48.796;9.026;2022-10-13T19:57:12;13.90;;;8.03;;
15297;SDS011;7750;48.796;9.026;2022-10-13T20:02:13;12.40;;;8.10;;
15297;SDS011;7750;48.796;9.026;2022-10-13T20:07:14;15.00;;;7.23;;
15297;SDS011;7750;48.796;9.026;2022-10-13T20:12:15;10.90;;;7.73;;
15297;SDS011;7750;48.796;9.026;2022-10-13T20:17:16;11.63;;;8.00;;
15297;SDS011;7750;48.796;9.026;2022-10-13T20:22:16;11.13;;;7.60;;
15297;SDS011;7750;48.796;9.026;2022-10-13T20:27:17;13.43;;;7.60;;
15297;SDS011;7750;48.796;9.026;2022-10-13T20:32:18;13.20;;;7.93;;
15297;SDS011;7750;48.796;9.026;2022-10-13T20:37:18;15.80;;;7.30;;
15297;SDS011;7750;48.796;9.026;2022-10-13T20:42:19;9.03;;;7.30;;
15297;SDS011;7750;48.796;9.026;2022-10-13T20:47:20;7.80;;;6.90;;
15297;SDS011;7750;48.796;9.026;2022-10-13T20:52:21;14.23;;;8.93;;
15297;SDS011;7750;48.796;9.026;2022-10-13T20:57:25;16.73;;;9.53;;
15297;SDS011;7750;48.796;9.026;2022-10-13T21:02:26;11.57;;;8.00;;
15297;SDS011;7750;48.796;9.026;2022-10-13T21:07:27;10.97;;;7.93;;
15297;SDS011;7750;48.796;9.026;2022-10-13T21:12:27;12.03;;;8.60;;
15297;SDS011;7750;48.796;9.026;2022-10-13T21:17:29;13.90;;;8.73;;
15297;SDS011;7750;48.796;9.026;2022-10-13T21:22:30;16.07;;;8.10;;
15297;SDS011;7750;48.796;9.026;2022-10-13T21:27:31;15.03;;;9.07;;
15297;SDS011;7750;48.796;9.026;2022-10-13T21:32:31;14.70;;;9.03;;
15297;SDS011;7750;48.796;9.026;2022-10-13T21:37:33;10.87;;;8.47;;
15297;SDS011;7750;48.796;9.026;2022-10-13T21:42:35;8.90;;;6.67;;
15297;SDS011;7750;48.796;9.026;2022-10-13T21:47:35;14.73;;;6.80;;
15297;SDS011;7750;48.796;9.026;2022-10-13T21:52:36;11.03;;;7.40;;
15297;SDS011;7750;48.796;9.026;2022-10-13T21:57:37;9.23;;;6.23;;
15297;SDS011;7750;48.796;9.026;2022-10-13T22:02:38;11.50;;;6.97;;
15297;SDS011;7750;48.796;9.026;2022-10-13T22:07:39;9.30;;;6.93;;
15297;SDS011;7750;48.796;9.026;2022-10-13T22:12:40;10.77;;;5.87;;
15297;SDS011;7750;48.796;9.026;2022-10-13T22:17:41;15.70;;;6.07;;
15297;SDS011;7750;48.796;9.026;2022-10-13T22:22:41;8.63;;;5.53;;
15297;SDS011;7750;48.796;9.026;2022-10-13T22:27:42;12.10;;;6.40;;
15297;SDS011;7750;48.796;9.026;2022-10-13T22:32:43;14.33;;;6.10;;
15297;SDS011;7750;48.796;9.026;2022-10-13T22:37:43;7.10;;;5.10;;
15297;SDS011;7750;48.796;9.026;2022-10-13T22:42:44;23.47;;;6.27;;
15297;SDS011;7750;48.796;9.026;2022-10-13T22:47:47;9.60;;;5.53;;
15297;SDS011;7750;48.796;9.026;2022-10-13T22:52:49;8.00;;;4.77;;
15297;SDS011;7750;48.796;9.026;2022-10-13T22:57:49;6.30;;;4.87;;
15297;SDS011;7750;48.796;9.026;2022-10-13T23:02:50;8.00;;;4.60;;
15297;SDS011;7750;48.796;9.026;2022-10-13T23:07:50;7.77;;;5.17;;
15297;SDS011;7750;48.796;9.026;2022-10-13T23:12:51;6.30;;;5.37;;
15297;SDS011;7750;48.796;9.026;2022-10-13T23:17:52;7.70;;;5.23;;
15297;SDS011;7750;48.796;9.026;2022-10-13T23:22:52;7.90;;;5.30;;
15297;SDS011;7750;48.796;9.026;2022-10-13T23:27:53;7.13;;;5.00;;
15297;SDS011;7750;48.796;9.026;2022-10-13T23:32:53;8.13;;;5.07;;
15297;SDS011;7750;48.796;9.026;2022-10-13T23:37:54;10.87;;;4.80;;
15297;SDS011;7750;48.796;9.026;2022-10-13T23:42:55;7.60;;;4.80;;
15297;SDS011;7750;48.796;9.026;2022-10-13T23:47:55;7.90;;;5.37;;
15297;SDS011;7750;48.796;9.026;2022-10-13T23:52:56;6.07;;;4.90;;
15297;SDS011;7750;48.796;9.026;2022-10-13T23:57:57;5.73;;;5.03;;
